sensor_id;sensor_type;location;lat;lon;timestamp;P1;durP1;ratioP1;P2;durP2;ratioP2
13706;SDS011;6925;47.816;13.072;2022-07-18T00:00:51;1.92;;;1.80;;
13706;SDS011;6925;47.816;13.072;2022-07-18T00:03:19;2.45;;;2.25;;
13706;SDS011;6925;47.816;13.072;2022-07-18T00:05:46;2.20;;;1.60;;
13706;SDS011;6925;47.816;13.072;2022-07-18T00:08:14;2.58;;;2.13;;
13706;SDS011;6925;47.816;13.072;2022-07-18T00:10:41;2.92;;;2.72;;
13706;SDS011;6925;47.816;13.072;2022-07-18T00:13:11;2.45;;;1.98;;
13706;SDS011;6925;47.816;13.072;2022-07-18T00:15:39;2.25;;;2.15;;
13706;SDS011;6925;47.816;13.072;2022-07-18T00:18:07;2.20;;;2.00;;
13706;SDS011;6925;47.816;13.072;2022-07-18T00:20:35;2.40;;;2.20;;
13706;SDS011;6925;47.816;13.072;2022-07-18T00:23:02;3.55;;;2.30;;
13706;SDS011;6925;47.816;13.072;2022-07-18T00:25:30;2.08;;;1.98;;
13706;SDS011;6925;47.816;13.072;2022-07-18T00:27:57;2.50;;;2.30;;
13706;SDS011;6925;47.816;13.072;2022-07-18T00:30:29;2.67;;;2.35;;
13706;SDS011;6925;47.816;13.072;2022-07-18T00:32:56;2.88;;;2.03;;
13706;SDS011;6925;47.816;13.072;2022-07-18T00:35:25;2.00;;;1.90;;
13706;SDS011;6925;47.816;13.072;2022-07-18T00:37:52;3.03;;;2.25;;
13706;SDS011;6925;47.816;13.072;2022-07-18T00:40:20;2.00;;;1.90;;
13706;SDS011;6925;47.816;13.072;2022-07-18T00:42:50;2.97;;;1.90;;
13706;SDS011;6925;47.816;13.072;2022-07-18T00:45:18;3.13;;;2.42;;
13706;SDS011;6925;47.816;13.072;2022-07-18T00:48:06;3.28;;;2.20;;
13706;SDS011;6925;47.816;13.072;2022-07-18T00:50:34;2.53;;;2.30;;
13706;SDS011;6925;47.816;13.072;2022-07-18T00:53:01;2.53;;;2.22;;
13706;SDS011;6925;47.816;13.072;2022-07-18T00:55:30;2.38;;;2.17;;
13706;SDS011;6925;47.816;13.072;2022-07-18T00:57:58;2.78;;;1.90;;
13706;SDS011;6925;47.816;13.072;2022-07-18T01:00:26;2.17;;;2.08;;
13706;SDS011;6925;47.816;13.072;2022-07-18T01:03:12;2.78;;;2.17;;
13706;SDS011;6925;47.816;13.072;2022-07-18T01:05:39;2.80;;;2.22;;
13706;SDS011;6925;47.816;13.072;2022-07-18T01:08:07;2.45;;;2.25;;
13706;SDS011;6925;47.816;13.072;2022-07-18T01:10:35;1.90;;;1.75;;
13706;SDS011;6925;47.816;13.072;2022-07-18T01:13:03;2.17;;;1.95;;
13706;SDS011;6925;47.816;13.072;2022-07-18T01:15:30;2.50;;;2.30;;
13706;SDS011;6925;47.816;13.072;2022-07-18T01:17:58;2.65;;;2.40;;
13706;SDS011;6925;47.816;13.072;2022-07-18T01:20:27;2.45;;;2.25;;
13706;SDS011;6925;47.816;13.072;2022-07-18T01:22:55;2.00;;;1.90;;
13706;SDS011;6925;47.816;13.072;2022-07-18T01:25:23;2.08;;;1.92;;
13706;SDS011;6925;47.816;13.072;2022-07-18T01:27:50;2.30;;;2.10;;
13706;SDS011;6925;47.816;13.072;2022-07-18T01:30:18;2.40;;;2.28;;
13706;SDS011;6925;47.816;13.072;2022-07-18T01:32:45;2.30;;;2.10;;
13706;SDS011;6925;47.816;13.072;2022-07-18T01:35:13;3.17;;;2.22;;
13706;SDS011;6925;47.816;13.072;2022-07-18T01:37:42;2.45;;;2.25;;
13706;SDS011;6925;47.816;13.072;2022-07-18T01:40:11;3.63;;;2.53;;
13706;SDS011;6925;47.816;13.072;2022-07-18T01:42:38;2.40;;;2.20;;
13706;SDS011;6925;47.816;13.072;2022-07-18T01:45:06;2.53;;;2.10;;
13706;SDS011;6925;47.816;13.072;2022-07-18T01:47:34;2.13;;;2.00;;
13706;SDS011;6925;47.816;13.072;2022-07-18T01:50:02;2.40;;;2.20;;
13706;SDS011;6925;47.816;13.072;2022-07-18T01:52:30;2.38;;;1.70;;
13706;SDS011;6925;47.816;13.072;2022-07-18T01:54:59;2.33;;;2.13;;
13706;SDS011;6925;47.816;13.072;2022-07-18T01:57:26;2.70;;;2.50;;
13706;SDS011;6925;47.816;13.072;2022-07-18T01:59:54;2.22;;;2.03;;
13706;SDS011;6925;47.816;13.072;2022-07-18T02:02:21;2.20;;;2.10;;
13706;SDS011;6925;47.816;13.072;2022-07-18T02:04:49;2.08;;;1.92;;
13706;SDS011;6925;47.816;13.072;2022-07-18T02:07:29;3.40;;;2.30;;
13706;SDS011;6925;47.816;13.072;2022-07-18T02:10:00;4.25;;;2.00;;
13706;SDS011;6925;47.816;13.072;2022-07-18T02:12:33;2.42;;;2.13;;
13706;SDS011;6925;47.816;13.072;2022-07-18T02:15:02;1.98;;;1.83;;
13706;SDS011;6925;47.816;13.072;2022-07-18T02:20:06;2.40;;;2.20;;
13706;SDS011;6925;47.816;13.072;2022-07-18T02:22:37;2.10;;;2.00;;
13706;SDS011;6925;47.816;13.072;2022-07-18T02:25:07;2.63;;;2.40;;
13706;SDS011;6925;47.816;13.072;2022-07-18T02:27:35;5.03;;;2.10;;
13706;SDS011;6925;47.816;13.072;2022-07-18T02:30:02;2.45;;;2.20;;
13706;SDS011;6925;47.816;13.072;2022-07-18T02:32:31;2.75;;;2.25;;
13706;SDS011;6925;47.816;13.072;2022-07-18T02:35:01;2.15;;;2.03;;
13706;SDS011;6925;47.816;13.072;2022-07-18T02:37:28;2.40;;;2.20;;
13706;SDS011;6925;47.816;13.072;2022-07-18T02:39:57;2.30;;;2.10;;
13706;SDS011;6925;47.816;13.072;2022-07-18T02:42:26;2.58;;;2.38;;
13706;SDS011;6925;47.816;13.072;2022-07-18T02:44:54;2.40;;;2.20;;
13706;SDS011;6925;47.816;13.072;2022-07-18T02:47:21;3.45;;;2.20;;
13706;SDS011;6925;47.816;13.072;2022-07-18T02:49:48;2.30;;;2.10;;
13706;SDS011;6925;47.816;13.072;2022-07-18T02:52:16;2.25;;;2.05;;
13706;SDS011;6925;47.816;13.072;2022-07-18T02:54:43;2.30;;;2.10;;
13706;SDS011;6925;47.816;13.072;2022-07-18T02:57:10;2.70;;;2.50;;
13706;SDS011;6925;47.816;13.072;2022-07-18T02:59:39;2.20;;;2.10;;
13706;SDS011;6925;47.816;13.072;2022-07-18T03:02:06;1.85;;;1.75;;
13706;SDS011;6925;47.816;13.072;2022-07-18T03:04:34;2.30;;;2.20;;
13706;SDS011;6925;47.816;13.072;2022-07-18T03:07:01;2.20;;;2.00;;
13706;SDS011;6925;47.816;13.072;2022-07-18T03:09:28;2.40;;;2.20;;
13706;SDS011;6925;47.816;13.072;2022-07-18T03:11:56;4.53;;;2.45;;
13706;SDS011;6925;47.816;13.072;2022-07-18T03:14:24;2.15;;;2.05;;
13706;SDS011;6925;47.816;13.072;2022-07-18T03:16:52;2.45;;;2.25;;
13706;SDS011;6925;47.816;13.072;2022-07-18T03:19:20;2.47;;;2.28;;
13706;SDS011;6925;47.816;13.072;2022-07-18T03:21:48;2.67;;;2.47;;
13706;SDS011;6925;47.816;13.072;2022-07-18T03:24:15;2.30;;;2.10;;
13706;SDS011;6925;47.816;13.072;2022-07-18T03:26:43;2.47;;;2.28;;
13706;SDS011;6925;47.816;13.072;2022-07-18T03:29:11;2.30;;;2.10;;
13706;SDS011;6925;47.816;13.072;2022-07-18T03:31:38;2.38;;;2.17;;
13706;SDS011;6925;47.816;13.072;2022-07-18T03:34:07;2.90;;;2.38;;
13706;SDS011;6925;47.816;13.072;2022-07-18T03:36:36;2.30;;;2.20;;
13706;SDS011;6925;47.816;13.072;2022-07-18T03:39:04;2.47;;;2.28;;
13706;SDS011;6925;47.816;13.072;2022-07-18T03:41:32;2.50;;;2.30;;
13706;SDS011;6925;47.816;13.072;2022-07-18T03:44:00;2.30;;;2.05;;
13706;SDS011;6925;47.816;13.072;2022-07-18T03:46:28;2.40;;;2.17;;
13706;SDS011;6925;47.816;13.072;2022-07-18T03:48:55;3.15;;;2.20;;
13706;SDS011;6925;47.816;13.072;2022-07-18T03:51:24;4.57;;;2.30;;
13706;SDS011;6925;47.816;13.072;2022-07-18T03:53:51;2.90;;;2.00;;
13706;SDS011;6925;47.816;13.072;2022-07-18T03:56:19;2.25;;;2.05;;
13706;SDS011;6925;47.816;13.072;2022-07-18T03:58:46;2.20;;;2.00;;
13706;SDS011;6925;47.816;13.072;2022-07-18T04:01:14;2.42;;;2.28;;
13706;SDS011;6925;47.816;13.072;2022-07-18T04:03:41;2.53;;;2.30;;
13706;SDS011;6925;47.816;13.072;2022-07-18T04:06:09;2.58;;;2.38;;
13706;SDS011;6925;47.816;13.072;2022-07-18T04:08:48;2.10;;;2.00;;
13706;SDS011;6925;47.816;13.072;2022-07-18T04:11:15;2.30;;;2.10;;
13706;SDS011;6925;47.816;13.072;2022-07-18T04:13:46;2.05;;;1.92;;
13706;SDS011;6925;47.816;13.072;2022-07-18T04:16:14;2.70;;;2.50;;
13706;SDS011;6925;47.816;13.072;2022-07-18T04:18:41;2.30;;;2.10;;
13706;SDS011;6925;47.816;13.072;2022-07-18T04:21:09;3.60;;;2.60;;
13706;SDS011;6925;47.816;13.072;2022-07-18T04:23:36;2.42;;;2.25;;
13706;SDS011;6925;47.816;13.072;2022-07-18T04:26:06;2.38;;;2.17;;
13706;SDS011;6925;47.816;13.072;2022-07-18T04:28:34;2.25;;;2.05;;
13706;SDS011;6925;47.816;13.072;2022-07-18T04:31:02;2.53;;;2.33;;
13706;SDS011;6925;47.816;13.072;2022-07-18T04:33:29;3.00;;;2.20;;
13706;SDS011;6925;47.816;13.072;2022-07-18T04:35:57;2.95;;;2.10;;
13706;SDS011;6925;47.816;13.072;2022-07-18T04:38:24;2.75;;;2.55;;
13706;SDS011;6925;47.816;13.072;2022-07-18T04:40:55;2.50;;;2.30;;
13706;SDS011;6925;47.816;13.072;2022-07-18T04:43:24;2.30;;;2.10;;
13706;SDS011;6925;47.816;13.072;2022-07-18T04:45:52;2.38;;;2.20;;
13706;SDS011;6925;47.816;13.072;2022-07-18T04:48:19;2.40;;;2.20;;
13706;SDS011;6925;47.816;13.072;2022-07-18T04:50:46;2.50;;;2.20;;
13706;SDS011;6925;47.816;13.072;2022-07-18T04:53:14;2.40;;;2.15;;
13706;SDS011;6925;47.816;13.072;2022-07-18T04:55:41;4.05;;;2.33;;
13706;SDS011;6925;47.816;13.072;2022-07-18T04:58:09;2.65;;;2.38;;
13706;SDS011;6925;47.816;13.072;2022-07-18T05:00:38;2.80;;;2.60;;
13706;SDS011;6925;47.816;13.072;2022-07-18T05:03:06;2.15;;;1.95;;
13706;SDS011;6925;47.816;13.072;2022-07-18T05:05:34;2.92;;;2.30;;
13706;SDS011;6925;47.816;13.072;2022-07-18T05:08:01;2.63;;;2.42;;
13706;SDS011;6925;47.816;13.072;2022-07-18T05:10:29;2.58;;;2.38;;
13706;SDS011;6925;47.816;13.072;2022-07-18T05:12:57;2.63;;;2.42;;
13706;SDS011;6925;47.816;13.072;2022-07-18T05:15:25;2.80;;;2.60;;
13706;SDS011;6925;47.816;13.072;2022-07-18T05:17:54;2.85;;;2.65;;
13706;SDS011;6925;47.816;13.072;2022-07-18T05:20:21;3.13;;;2.83;;
13706;SDS011;6925;47.816;13.072;2022-07-18T05:22:50;3.22;;;2.85;;
13706;SDS011;6925;47.816;13.072;2022-07-18T05:25:18;4.18;;;2.92;;
13706;SDS011;6925;47.816;13.072;2022-07-18T05:27:48;2.72;;;2.53;;
13706;SDS011;6925;47.816;13.072;2022-07-18T05:30:15;3.50;;;2.65;;
13706;SDS011;6925;47.816;13.072;2022-07-18T05:32:44;2.78;;;2.55;;
13706;SDS011;6925;47.816;13.072;2022-07-18T05:35:14;2.60;;;2.40;;
13706;SDS011;6925;47.816;13.072;2022-07-18T05:37:44;3.03;;;2.72;;
13706;SDS011;6925;47.816;13.072;2022-07-18T05:40:13;2.70;;;2.55;;
13706;SDS011;6925;47.816;13.072;2022-07-18T05:42:40;3.58;;;2.90;;
13706;SDS011;6925;47.816;13.072;2022-07-18T05:45:09;3.03;;;2.72;;
13706;SDS011;6925;47.816;13.072;2022-07-18T05:47:37;2.65;;;2.45;;
13706;SDS011;6925;47.816;13.072;2022-07-18T05:50:05;3.90;;;2.72;;
13706;SDS011;6925;47.816;13.072;2022-07-18T05:52:38;3.47;;;2.42;;
13706;SDS011;6925;47.816;13.072;2022-07-18T05:55:06;3.17;;;2.75;;
13706;SDS011;6925;47.816;13.072;2022-07-18T05:57:34;3.03;;;2.72;;
13706;SDS011;6925;47.816;13.072;2022-07-18T06:00:02;3.00;;;2.80;;
13706;SDS011;6925;47.816;13.072;2022-07-18T06:02:30;2.50;;;2.30;;
13706;SDS011;6925;47.816;13.072;2022-07-18T06:04:58;3.97;;;2.83;;
13706;SDS011;6925;47.816;13.072;2022-07-18T06:07:27;2.42;;;2.22;;
13706;SDS011;6925;47.816;13.072;2022-07-18T06:09:56;2.85;;;2.63;;
13706;SDS011;6925;47.816;13.072;2022-07-18T06:12:31;2.90;;;2.60;;
13706;SDS011;6925;47.816;13.072;2022-07-18T06:14:58;2.85;;;2.42;;
13706;SDS011;6925;47.816;13.072;2022-07-18T06:17:26;2.67;;;2.45;;
13706;SDS011;6925;47.816;13.072;2022-07-18T06:19:54;3.25;;;2.50;;
13706;SDS011;6925;47.816;13.072;2022-07-18T06:22:22;2.58;;;2.38;;
13706;SDS011;6925;47.816;13.072;2022-07-18T06:24:50;3.47;;;2.60;;
13706;SDS011;6925;47.816;13.072;2022-07-18T06:27:20;3.45;;;2.65;;
13706;SDS011;6925;47.816;13.072;2022-07-18T06:29:48;3.22;;;2.63;;
13706;SDS011;6925;47.816;13.072;2022-07-18T06:32:15;3.63;;;2.58;;
13706;SDS011;6925;47.816;13.072;2022-07-18T06:34:44;2.83;;;2.63;;
13706;SDS011;6925;47.816;13.072;2022-07-18T06:37:11;2.45;;;2.25;;
13706;SDS011;6925;47.816;13.072;2022-07-18T06:39:41;3.10;;;2.42;;
13706;SDS011;6925;47.816;13.072;2022-07-18T06:42:08;2.95;;;2.53;;
13706;SDS011;6925;47.816;13.072;2022-07-18T06:44:45;2.65;;;2.45;;
13706;SDS011;6925;47.816;13.072;2022-07-18T06:47:13;2.22;;;2.08;;
13706;SDS011;6925;47.816;13.072;2022-07-18T06:49:47;2.50;;;2.30;;
13706;SDS011;6925;47.816;13.072;2022-07-18T06:52:18;2.80;;;2.60;;
13706;SDS011;6925;47.816;13.072;2022-07-18T06:54:45;2.50;;;2.35;;
13706;SDS011;6925;47.816;13.072;2022-07-18T06:57:13;3.13;;;2.25;;
13706;SDS011;6925;47.816;13.072;2022-07-18T06:59:42;2.50;;;2.30;;
13706;SDS011;6925;47.816;13.072;2022-07-18T07:02:13;5.28;;;2.30;;
13706;SDS011;6925;47.816;13.072;2022-07-18T07:04:41;2.88;;;2.15;;
13706;SDS011;6925;47.816;13.072;2022-07-18T07:07:08;2.33;;;2.22;;
13706;SDS011;6925;47.816;13.072;2022-07-18T07:09:36;4.03;;;2.55;;
13706;SDS011;6925;47.816;13.072;2022-07-18T07:12:03;3.60;;;2.83;;
13706;SDS011;6925;47.816;13.072;2022-07-18T07:14:31;2.45;;;2.20;;
13706;SDS011;6925;47.816;13.072;2022-07-18T07:17:00;2.97;;;2.25;;
13706;SDS011;6925;47.816;13.072;2022-07-18T07:19:28;3.97;;;2.55;;
13706;SDS011;6925;47.816;13.072;2022-07-18T07:21:55;2.78;;;2.58;;
13706;SDS011;6925;47.816;13.072;2022-07-18T07:24:23;2.97;;;2.40;;
13706;SDS011;6925;47.816;13.072;2022-07-18T07:26:52;3.40;;;2.30;;
13706;SDS011;6925;47.816;13.072;2022-07-18T07:29:20;2.70;;;2.47;;
13706;SDS011;6925;47.816;13.072;2022-07-18T07:31:47;2.95;;;2.38;;
13706;SDS011;6925;47.816;13.072;2022-07-18T07:34:16;2.50;;;2.30;;
13706;SDS011;6925;47.816;13.072;2022-07-18T07:36:44;3.45;;;2.17;;
13706;SDS011;6925;47.816;13.072;2022-07-18T07:39:12;3.67;;;2.40;;
13706;SDS011;6925;47.816;13.072;2022-07-18T07:41:39;2.92;;;2.55;;
13706;SDS011;6925;47.816;13.072;2022-07-18T07:44:06;3.90;;;2.67;;
13706;SDS011;6925;47.816;13.072;2022-07-18T07:46:34;3.22;;;2.60;;
13706;SDS011;6925;47.816;13.072;2022-07-18T07:49:01;3.05;;;2.78;;
13706;SDS011;6925;47.816;13.072;2022-07-18T07:51:30;2.60;;;2.30;;
13706;SDS011;6925;47.816;13.072;2022-07-18T07:53:58;2.78;;;2.58;;
13706;SDS011;6925;47.816;13.072;2022-07-18T07:56:25;2.80;;;2.50;;
13706;SDS011;6925;47.816;13.072;2022-07-18T07:58:53;2.50;;;2.30;;
13706;SDS011;6925;47.816;13.072;2022-07-18T08:01:20;3.28;;;2.28;;
13706;SDS011;6925;47.816;13.072;2022-07-18T08:03:47;2.45;;;2.25;;
13706;SDS011;6925;47.816;13.072;2022-07-18T08:06:15;2.63;;;2.42;;
13706;SDS011;6925;47.816;13.072;2022-07-18T08:08:44;4.85;;;2.30;;
13706;SDS011;6925;47.816;13.072;2022-07-18T08:11:12;3.80;;;2.30;;
13706;SDS011;6925;47.816;13.072;2022-07-18T08:13:40;2.28;;;2.08;;
13706;SDS011;6925;47.816;13.072;2022-07-18T08:16:07;1.98;;;1.88;;
13706;SDS011;6925;47.816;13.072;2022-07-18T08:18:34;2.38;;;2.17;;
13706;SDS011;6925;47.816;13.072;2022-07-18T08:21:02;2.25;;;2.13;;
13706;SDS011;6925;47.816;13.072;2022-07-18T08:23:29;3.88;;;2.58;;
13706;SDS011;6925;47.816;13.072;2022-07-18T08:25:58;3.55;;;2.25;;
13706;SDS011;6925;47.816;13.072;2022-07-18T08:28:25;2.17;;;1.98;;
13706;SDS011;6925;47.816;13.072;2022-07-18T08:30:53;3.08;;;2.00;;
13706;SDS011;6925;47.816;13.072;2022-07-18T08:33:20;4.70;;;2.67;;
13706;SDS011;6925;47.816;13.072;2022-07-18T08:35:48;2.53;;;2.25;;
13706;SDS011;6925;47.816;13.072;2022-07-18T08:38:15;3.45;;;2.65;;
13706;SDS011;6925;47.816;13.072;2022-07-18T08:40:43;2.47;;;2.28;;
13706;SDS011;6925;47.816;13.072;2022-07-18T08:43:17;2.70;;;2.28;;
13706;SDS011;6925;47.816;13.072;2022-07-18T08:45:45;3.28;;;2.20;;
13706;SDS011;6925;47.816;13.072;2022-07-18T08:48:13;2.72;;;2.35;;
13706;SDS011;6925;47.816;13.072;2022-07-18T08:50:42;2.30;;;2.10;;
13706;SDS011;6925;47.816;13.072;2022-07-18T08:53:11;2.13;;;1.92;;
13706;SDS011;6925;47.816;13.072;2022-07-18T08:55:39;3.28;;;2.47;;
13706;SDS011;6925;47.816;13.072;2022-07-18T08:58:06;2.80;;;2.22;;
13706;SDS011;6925;47.816;13.072;2022-07-18T09:00:36;2.53;;;2.33;;
13706;SDS011;6925;47.816;13.072;2022-07-18T09:03:04;3.28;;;2.28;;
13706;SDS011;6925;47.816;13.072;2022-07-18T09:05:34;3.13;;;2.00;;
13706;SDS011;6925;47.816;13.072;2022-07-18T09:08:12;2.22;;;1.98;;
13706;SDS011;6925;47.816;13.072;2022-07-18T09:10:56;2.22;;;2.03;;
13706;SDS011;6925;47.816;13.072;2022-07-18T09:13:30;1.98;;;1.88;;
13706;SDS011;6925;47.816;13.072;2022-07-18T09:16:05;2.08;;;1.92;;
13706;SDS011;6925;47.816;13.072;2022-07-18T09:18:35;1.88;;;1.77;;
13706;SDS011;6925;47.816;13.072;2022-07-18T09:21:08;3.17;;;1.90;;
13706;SDS011;6925;47.816;13.072;2022-07-18T09:23:37;2.97;;;1.80;;
13706;SDS011;6925;47.816;13.072;2022-07-18T09:26:06;2.00;;;1.88;;
13706;SDS011;6925;47.816;13.072;2022-07-18T09:28:45;2.67;;;2.08;;
13706;SDS011;6925;47.816;13.072;2022-07-18T09:31:19;2.97;;;1.92;;
13706;SDS011;6925;47.816;13.072;2022-07-18T09:36:58;1.90;;;1.80;;
13706;SDS011;6925;47.816;13.072;2022-07-18T09:39:26;2.53;;;2.17;;
13706;SDS011;6925;47.816;13.072;2022-07-18T09:41:55;1.80;;;1.67;;
13706;SDS011;6925;47.816;13.072;2022-07-18T09:44:40;2.00;;;1.90;;
13706;SDS011;6925;47.816;13.072;2022-07-18T09:47:10;2.05;;;1.83;;
13706;SDS011;6925;47.816;13.072;2022-07-18T09:49:38;1.63;;;1.52;;
13706;SDS011;6925;47.816;13.072;2022-07-18T09:52:08;2.03;;;1.83;;
13706;SDS011;6925;47.816;13.072;2022-07-18T09:54:36;2.85;;;1.98;;
13706;SDS011;6925;47.816;13.072;2022-07-18T09:57:05;2.20;;;1.85;;
13706;SDS011;6925;47.816;13.072;2022-07-18T09:59:35;3.95;;;2.00;;
13706;SDS011;6925;47.816;13.072;2022-07-18T10:02:04;1.85;;;1.70;;
13706;SDS011;6925;47.816;13.072;2022-07-18T10:04:33;1.40;;;1.30;;
13706;SDS011;6925;47.816;13.072;2022-07-18T10:07:00;1.92;;;1.67;;
13706;SDS011;6925;47.816;13.072;2022-07-18T10:09:28;1.60;;;1.50;;
13706;SDS011;6925;47.816;13.072;2022-07-18T10:11:58;2.15;;;1.73;;
13706;SDS011;6925;47.816;13.072;2022-07-18T10:14:26;2.38;;;1.52;;
13706;SDS011;6925;47.816;13.072;2022-07-18T10:16:54;2.28;;;1.48;;
13706;SDS011;6925;47.816;13.072;2022-07-18T10:19:24;3.60;;;1.58;;
13706;SDS011;6925;47.816;13.072;2022-07-18T10:21:56;1.73;;;1.48;;
13706;SDS011;6925;47.816;13.072;2022-07-18T10:24:24;2.45;;;1.75;;
13706;SDS011;6925;47.816;13.072;2022-07-18T10:27:12;1.83;;;1.50;;
13706;SDS011;6925;47.816;13.072;2022-07-18T10:32:36;1.50;;;1.40;;
13706;SDS011;6925;47.816;13.072;2022-07-18T10:35:03;1.50;;;1.40;;
13706;SDS011;6925;47.816;13.072;2022-07-18T10:37:34;2.17;;;1.60;;
13706;SDS011;6925;47.816;13.072;2022-07-18T10:46:00;1.70;;;1.40;;
13706;SDS011;6925;47.816;13.072;2022-07-18T10:51:30;1.10;;;1.10;;
13706;SDS011;6925;47.816;13.072;2022-07-18T10:54:07;1.35;;;1.25;;
13706;SDS011;6925;47.816;13.072;2022-07-18T10:59:58;2.95;;;1.23;;
13706;SDS011;6925;47.816;13.072;2022-07-18T11:02:30;1.48;;;1.38;;
13706;SDS011;6925;47.816;13.072;2022-07-18T11:04:59;1.98;;;1.40;;
13706;SDS011;6925;47.816;13.072;2022-07-18T11:07:27;1.25;;;1.15;;
13706;SDS011;6925;47.816;13.072;2022-07-18T11:09:56;1.58;;;1.48;;
13706;SDS011;6925;47.816;13.072;2022-07-18T11:12:27;2.45;;;1.50;;
13706;SDS011;6925;47.816;13.072;2022-07-18T11:14:59;3.30;;;1.30;;
13706;SDS011;6925;47.816;13.072;2022-07-18T11:20:39;3.92;;;1.40;;
13706;SDS011;6925;47.816;13.072;2022-07-18T11:31:20;1.63;;;1.52;;
13706;SDS011;6925;47.816;13.072;2022-07-18T11:33:49;1.63;;;1.52;;
13706;SDS011;6925;47.816;13.072;2022-07-18T11:36:18;1.50;;;1.40;;
13706;SDS011;6925;47.816;13.072;2022-07-18T11:38:52;1.60;;;1.48;;
13706;SDS011;6925;47.816;13.072;2022-07-18T11:41:24;1.35;;;1.15;;
13706;SDS011;6925;47.816;13.072;2022-07-18T11:43:52;1.40;;;1.30;;
13706;SDS011;6925;47.816;13.072;2022-07-18T11:49:34;4.53;;;2.83;;
13706;SDS011;6925;47.816;13.072;2022-07-18T11:52:03;1.50;;;1.40;;
13706;SDS011;6925;47.816;13.072;2022-07-18T11:54:31;1.52;;;1.40;;
13706;SDS011;6925;47.816;13.072;2022-07-18T11:56:59;1.40;;;1.30;;
13706;SDS011;6925;47.816;13.072;2022-07-18T11:59:38;1.65;;;1.27;;
13706;SDS011;6925;47.816;13.072;2022-07-18T12:02:10;1.30;;;1.23;;
13706;SDS011;6925;47.816;13.072;2022-07-18T12:04:39;1.33;;;1.23;;
13706;SDS011;6925;47.816;13.072;2022-07-18T12:07:17;1.90;;;1.80;;
13706;SDS011;6925;47.816;13.072;2022-07-18T12:09:52;1.50;;;1.40;;
13706;SDS011;6925;47.816;13.072;2022-07-18T12:12:59;1.40;;;1.30;;
13706;SDS011;6925;47.816;13.072;2022-07-18T12:15:37;1.58;;;1.48;;
13706;SDS011;6925;47.816;13.072;2022-07-18T12:23:17;1.48;;;1.38;;
13706;SDS011;6925;47.816;13.072;2022-07-18T12:25:54;1.58;;;1.33;;
13706;SDS011;6925;47.816;13.072;2022-07-18T12:29:13;1.80;;;1.60;;
13706;SDS011;6925;47.816;13.072;2022-07-18T12:31:48;2.15;;;1.52;;
13706;SDS011;6925;47.816;13.072;2022-07-18T12:41:18;1.30;;;1.20;;
13706;SDS011;6925;47.816;13.072;2022-07-18T12:52:56;1.77;;;1.33;;
13706;SDS011;6925;47.816;13.072;2022-07-18T12:55:32;1.83;;;1.27;;
13706;SDS011;6925;47.816;13.072;2022-07-18T12:58:02;1.20;;;1.10;;
13706;SDS011;6925;47.816;13.072;2022-07-18T13:08:42;1.23;;;1.00;;
13706;SDS011;6925;47.816;13.072;2022-07-18T13:27:58;1.60;;;0.90;;
13706;SDS011;6925;47.816;13.072;2022-07-18T13:30:47;1.70;;;0.90;;
13706;SDS011;6925;47.816;13.072;2022-07-18T13:33:37;1.25;;;1.02;;
13706;SDS011;6925;47.816;13.072;2022-07-18T13:36:08;1.67;;;1.00;;
13706;SDS011;6925;47.816;13.072;2022-07-18T13:38:42;1.35;;;1.00;;
13706;SDS011;6925;47.816;13.072;2022-07-18T13:41:16;1.52;;;1.08;;
13706;SDS011;6925;47.816;13.072;2022-07-18T13:46:51;0.88;;;0.70;;
13706;SDS011;6925;47.816;13.072;2022-07-18T13:49:18;1.00;;;0.90;;
13706;SDS011;6925;47.816;13.072;2022-07-18T13:51:46;0.77;;;0.70;;
13706;SDS011;6925;47.816;13.072;2022-07-18T13:57:04;0.80;;;0.80;;
13706;SDS011;6925;47.816;13.072;2022-07-18T13:59:43;1.05;;;0.90;;
13706;SDS011;6925;47.816;13.072;2022-07-18T14:02:39;1.35;;;0.90;;
13706;SDS011;6925;47.816;13.072;2022-07-18T14:05:12;0.88;;;0.75;;
13706;SDS011;6925;47.816;13.072;2022-07-18T14:36:22;1.20;;;0.85;;
13706;SDS011;6925;47.816;13.072;2022-07-18T14:38:59;1.05;;;0.90;;
13706;SDS011;6925;47.816;13.072;2022-07-18T14:41:29;0.90;;;0.90;;
13706;SDS011;6925;47.816;13.072;2022-07-18T14:44:14;1.77;;;0.82;;
13706;SDS011;6925;47.816;13.072;2022-07-18T14:46:53;1.08;;;1.08;;
13706;SDS011;6925;47.816;13.072;2022-07-18T14:49:38;0.98;;;0.80;;
13706;SDS011;6925;47.816;13.072;2022-07-18T14:52:52;0.80;;;0.80;;
13706;SDS011;6925;47.816;13.072;2022-07-18T14:55:24;1.17;;;0.90;;
13706;SDS011;6925;47.816;13.072;2022-07-18T15:03:02;0.98;;;0.98;;
13706;SDS011;6925;47.816;13.072;2022-07-18T15:05:33;1.02;;;0.93;;
13706;SDS011;6925;47.816;13.072;2022-07-18T15:08:16;1.55;;;0.80;;
13706;SDS011;6925;47.816;13.072;2022-07-18T15:13:28;1.00;;;0.70;;
13706;SDS011;6925;47.816;13.072;2022-07-18T15:22:07;0.60;;;0.60;;
13706;SDS011;6925;47.816;13.072;2022-07-18T15:24:36;1.20;;;0.90;;
13706;SDS011;6925;47.816;13.072;2022-07-18T15:29:59;0.70;;;0.70;;
13706;SDS011;6925;47.816;13.072;2022-07-18T15:32:27;0.52;;;0.52;;
13706;SDS011;6925;47.816;13.072;2022-07-18T15:34:55;0.70;;;0.65;;
13706;SDS011;6925;47.816;13.072;2022-07-18T15:37:24;0.60;;;0.60;;
13706;SDS011;6925;47.816;13.072;2022-07-18T15:39:54;0.77;;;0.60;;
13706;SDS011;6925;47.816;13.072;2022-07-18T15:42:24;0.70;;;0.70;;
13706;SDS011;6925;47.816;13.072;2022-07-18T15:44:51;0.60;;;0.60;;
13706;SDS011;6925;47.816;13.072;2022-07-18T15:47:19;0.60;;;0.60;;
13706;SDS011;6925;47.816;13.072;2022-07-18T15:49:47;0.70;;;0.70;;
13706;SDS011;6925;47.816;13.072;2022-07-18T15:52:14;0.60;;;0.60;;
13706;SDS011;6925;47.816;13.072;2022-07-18T15:54:45;0.70;;;0.70;;
13706;SDS011;6925;47.816;13.072;2022-07-18T16:16:56;0.82;;;0.70;;
13706;SDS011;6925;47.816;13.072;2022-07-18T16:19:26;1.15;;;1.05;;
13706;SDS011;6925;47.816;13.072;2022-07-18T16:21:53;1.05;;;0.90;;
13706;SDS011;6925;47.816;13.072;2022-07-18T16:24:58;1.02;;;1.02;;
13706;SDS011;6925;47.816;13.072;2022-07-18T16:31:28;1.77;;;1.25;;
13706;SDS011;6925;47.816;13.072;2022-07-18T17:09:22;1.40;;;1.30;;
13706;SDS011;6925;47.816;13.072;2022-07-18T17:12:08;1.38;;;1.23;;
13706;SDS011;6925;47.816;13.072;2022-07-18T17:14:49;1.30;;;1.20;;
13706;SDS011;6925;47.816;13.072;2022-07-18T17:17:35;4.18;;;2.20;;
13706;SDS011;6925;47.816;13.072;2022-07-18T17:20:33;2.08;;;1.35;;
13706;SDS011;6925;47.816;13.072;2022-07-18T17:28:18;1.52;;;1.20;;
13706;SDS011;6925;47.816;13.072;2022-07-18T17:41:56;3.08;;;1.30;;
13706;SDS011;6925;47.816;13.072;2022-07-18T17:56:18;2.60;;;1.50;;
13706;SDS011;6925;47.816;13.072;2022-07-18T17:59:24;3.40;;;1.40;;
13706;SDS011;6925;47.816;13.072;2022-07-18T18:11:16;1.77;;;1.30;;
13706;SDS011;6925;47.816;13.072;2022-07-18T18:13:48;1.48;;;1.25;;
13706;SDS011;6925;47.816;13.072;2022-07-18T18:16:39;1.67;;;1.30;;
13706;SDS011;6925;47.816;13.072;2022-07-18T18:22:12;3.15;;;1.60;;
13706;SDS011;6925;47.816;13.072;2022-07-18T19:10:57;1.60;;;1.50;;
13706;SDS011;6925;47.816;13.072;2022-07-18T19:13:31;1.98;;;1.40;;
13706;SDS011;6925;47.816;13.072;2022-07-18T19:16:01;4.50;;;1.50;;
13706;SDS011;6925;47.816;13.072;2022-07-18T19:18:29;2.05;;;1.30;;
13706;SDS011;6925;47.816;13.072;2022-07-18T19:24:35;1.92;;;1.83;;
13706;SDS011;6925;47.816;13.072;2022-07-18T19:30:30;3.70;;;1.75;;
13706;SDS011;6925;47.816;13.072;2022-07-18T19:33:03;1.60;;;1.50;;
13706;SDS011;6925;47.816;13.072;2022-07-18T19:35:46;1.80;;;1.48;;
13706;SDS011;6925;47.816;13.072;2022-07-18T19:42:11;1.98;;;1.73;;
13706;SDS011;6925;47.816;13.072;2022-07-18T19:44:46;3.22;;;1.92;;
13706;SDS011;6925;47.816;13.072;2022-07-18T20:49:47;2.13;;;1.73;;
13706;SDS011;6925;47.816;13.072;2022-07-18T21:19:51;2.72;;;1.60;;
13706;SDS011;6925;47.816;13.072;2022-07-18T21:38:26;2.80;;;1.90;;
13706;SDS011;6925;47.816;13.072;2022-07-18T22:57:02;1.73;;;1.63;;
13706;SDS011;6925;47.816;13.072;2022-07-18T23:20:15;2.05;;;1.52;;